Time;durP1;ratioP1;P1;durP2;ratioP2;P2;SDS_P1;SDS_P2;PMS_P1;PMS_P2;Temp;Humidity;BMP_temperature;BMP_pressure;BME280_temperature;BME280_humidity;BME280_pressure;Samples;Min_cycle;Max_cycle;Signal;HPM_P1;HPM_P2
2024/02/16 00:01:14;;;;;;;;;5.75;5.00;;;;;;;;5090697;28;8818;-79
2024/02/16 00:03:42;;;;;;;;;7.25;5.25;;;;;;;;5090538;28;9597;-79
2024/02/16 00:06:10;;;;;;;;;4.50;4.50;;;;;;;;5079831;28;8855;-80
2024/02/16 00:08:38;;;;;;;;;6.00;6.00;;;;;;;;5091957;28;8970;-79
2024/02/16 00:11:06;;;;;;;;;8.25;6.75;;;;;;;;5092675;28;8976;-82
2024/02/16 00:13:33;;;;;;;;;8.50;7.50;;;;;;;;5093787;28;8966;-80
2024/02/16 00:16:00;;;;;;;;;5.75;5.75;;;;;;;;5093455;28;8980;-80
2024/02/16 00:18:27;;;;;;;;;6.00;6.00;;;;;;;;5091947;28;8892;-80
2024/02/16 00:20:56;;;;;;;;;7.25;6.75;;;;;;;;5091302;28;9621;-80
2024/02/16 00:23:25;;;;;;;;;7.75;6.75;;;;;;;;5090452;28;8973;-79
2024/02/16 00:25:52;;;;;;;;;7.50;7.50;;;;;;;;5091241;28;8854;-80
2024/02/16 00:28:21;;;;;;;;;8.75;8.50;;;;;;;;5090679;28;8850;-80
2024/02/16 00:30:49;;;;;;;;;9.00;8.00;;;;;;;;5090983;28;8900;-80
2024/02/16 00:33:17;;;;;;;;;6.00;6.00;;;;;;;;5091169;28;8949;-80
2024/02/16 00:35:47;;;;;;;;;6.50;6.50;;;;;;;;5091885;28;8892;-80
2024/02/16 00:38:16;;;;;;;;;4.50;4.50;;;;;;;;5092723;28;8838;-81
2024/02/16 00:40:44;;;;;;;;;7.75;7.75;;;;;;;;5092678;28;8868;-80
2024/02/16 00:43:11;;;;;;;;;5.00;5.00;;;;;;;;5090981;28;8858;-80
2024/02/16 00:45:41;;;;;;;;;6.25;6.25;;;;;;;;5090940;28;8880;-79
2024/02/16 00:48:08;;;;;;;;;6.75;6.75;;;;;;;;5090631;28;8996;-80
2024/02/16 00:50:36;;;;;;;;;7.00;7.00;;;;;;;;5090421;28;9629;-79
2024/02/16 00:53:04;;;;;;;;;6.00;6.00;;;;;;;;5089622;28;9680;-80
2024/02/16 00:55:32;;;;;;;;;7.00;7.00;;;;;;;;5090926;28;8850;-82
2024/02/16 00:57:59;;;;;;;;;5.25;5.25;;;;;;;;5090530;28;8839;-79
2024/02/16 01:00:27;;;;;;;;;6.50;6.25;;;;;;;;5089660;28;8743;-80
2024/02/16 01:02:54;;;;;;;;;6.50;6.00;;;;;;;;5090153;28;9614;-80
2024/02/16 01:05:23;;;;;;;;;6.50;6.50;;;;;;;;5090328;28;8851;-80
2024/02/16 01:07:50;;;;;;;;;5.00;5.00;;;;;;;;5090518;28;9006;-80
2024/02/16 01:10:17;;;;;;;;;6.00;6.00;;;;;;;;5090424;28;8850;-79
2024/02/16 01:12:46;;;;;;;;;7.00;7.00;;;;;;;;5091232;28;8846;-82
2024/02/16 01:15:13;;;;;;;;;6.75;6.75;;;;;;;;5092176;28;8972;-80
2024/02/16 01:17:40;;;;;;;;;4.50;4.50;;;;;;;;5093111;28;8854;-79
2024/02/16 01:20:10;;;;;;;;;5.50;5.50;;;;;;;;5092291;28;8830;-78
2024/02/16 01:22:37;;;;;;;;;6.75;5.75;;;;;;;;5093509;28;8850;-80
2024/02/16 01:25:05;;;;;;;;;6.00;6.00;;;;;;;;5085746;28;8846;-79
2024/02/16 01:27:32;;;;;;;;;7.00;7.00;;;;;;;;5092999;28;8957;-79
2024/02/16 01:30:02;;;;;;;;;6.00;5.00;;;;;;;;5092040;28;8866;-79
2024/02/16 01:32:29;;;;;;;;;6.25;6.25;;;;;;;;5090329;28;8809;-79
2024/02/16 01:34:57;;;;;;;;;6.25;6.25;;;;;;;;5089148;28;9595;-79
2024/02/16 01:37:25;;;;;;;;;6.00;6.00;;;;;;;;5090050;28;9641;-79
2024/02/16 01:39:55;;;;;;;;;7.50;7.25;;;;;;;;5090217;28;8850;-80
2024/02/16 01:42:22;;;;;;;;;7.25;7.25;;;;;;;;5089936;28;8846;-79
2024/02/16 01:44:49;;;;;;;;;7.25;7.25;;;;;;;;5089512;28;8870;-80
2024/02/16 01:47:20;;;;;;;;;6.25;6.25;;;;;;;;5089256;28;8984;-79
2024/02/16 01:49:47;;;;;;;;;6.00;6.00;;;;;;;;5089796;28;8964;-79
2024/02/16 01:52:14;;;;;;;;;6.75;6.00;;;;;;;;5089530;28;9839;-82
2024/02/16 01:54:42;;;;;;;;;6.50;6.50;;;;;;;;5089264;28;8839;-80
2024/02/16 01:57:10;;;;;;;;;5.25;4.50;;;;;;;;5085861;28;8907;-80
2024/02/16 01:59:40;;;;;;;;;5.25;5.25;;;;;;;;5089863;28;8852;-81
2024/02/16 02:02:09;;;;;;;;;6.00;6.00;;;;;;;;5090535;28;9302;-80
2024/02/16 02:04:38;;;;;;;;;6.75;5.50;;;;;;;;5091618;28;8923;-80
2024/02/16 02:07:14;;;;;;;;;9.50;6.75;;;;;;;;5090015;28;8850;-80
2024/02/16 02:09:42;;;;;;;;;6.00;5.00;;;;;;;;5089346;28;8985;-79
2024/02/16 02:12:09;;;;;;;;;6.25;6.25;;;;;;;;5088466;28;8953;-79
2024/02/16 02:14:37;;;;;;;;;6.50;6.50;;;;;;;;5089099;28;9625;-82
2024/02/16 02:17:04;;;;;;;;;6.25;6.25;;;;;;;;5088678;28;8842;-80
2024/02/16 02:19:32;;;;;;;;;7.25;6.00;;;;;;;;5084325;28;8860;-81
2024/02/16 02:22:02;;;;;;;;;6.00;6.00;;;;;;;;5084868;28;8899;-82
2024/02/16 02:24:31;;;;;;;;;8.25;7.25;;;;;;;;5089064;28;9640;-81
2024/02/16 02:26:58;;;;;;;;;7.50;6.00;;;;;;;;5091257;28;8858;-80
2024/02/16 02:29:25;;;;;;;;;7.25;5.50;;;;;;;;5088563;28;8850;-79
2024/02/16 02:31:55;;;;;;;;;4.50;4.50;;;;;;;;5088886;28;8821;-79
2024/02/16 02:34:22;;;;;;;;;8.00;6.00;;;;;;;;5089688;28;8846;-79
2024/02/16 02:36:49;;;;;;;;;7.00;7.00;;;;;;;;5087370;28;8850;-80
2024/02/16 02:39:18;;;;;;;;;12.50;5.25;;;;;;;;5076640;28;8830;-80
2024/02/16 02:41:47;;;;;;;;;5.75;5.75;;;;;;;;5088347;28;8974;-80
2024/02/16 02:44:14;;;;;;;;;8.50;6.50;;;;;;;;5088485;28;8869;-80
2024/02/16 02:46:42;;;;;;;;;7.00;7.00;;;;;;;;5088118;28;8842;-78
2024/02/16 02:49:09;;;;;;;;;6.50;5.00;;;;;;;;5088869;28;8834;-82
2024/02/16 02:51:35;;;;;;;;;5.75;5.75;;;;;;;;5088774;28;8838;-80
2024/02/16 02:54:02;;;;;;;;;7.00;7.00;;;;;;;;5076126;28;8847;-81
2024/02/16 02:56:29;;;;;;;;;6.00;6.00;;;;;;;;5088809;28;8836;-79
2024/02/16 02:59:00;;;;;;;;;6.00;6.00;;;;;;;;5087672;28;8984;-79
2024/02/16 03:01:30;;;;;;;;;5.00;4.25;;;;;;;;5089120;28;8810;-79
2024/02/16 03:03:57;;;;;;;;;7.00;6.25;;;;;;;;5090505;28;8868;-79
2024/02/16 03:06:28;;;;;;;;;5.25;5.25;;;;;;;;5090953;28;8868;-80
2024/02/16 03:08:55;;;;;;;;;5.75;5.25;;;;;;;;5090566;28;8926;-80
2024/02/16 03:11:22;;;;;;;;;6.00;6.00;;;;;;;;5091857;28;8911;-78
2024/02/16 03:13:49;;;;;;;;;7.75;6.75;;;;;;;;5091016;28;8856;-81
2024/02/16 03:16:18;;;;;;;;;8.00;5.25;;;;;;;;5086325;28;8864;-80
2024/02/16 03:18:45;;;;;;;;;5.75;5.75;;;;;;;;5089834;28;9694;-81
2024/02/16 03:21:16;;;;;;;;;5.50;5.00;;;;;;;;5089087;28;8834;-80
2024/02/16 03:23:44;;;;;;;;;5.50;5.50;;;;;;;;5087658;28;8873;-81
2024/02/16 03:26:20;;;;;;;;;6.50;6.50;;;;;;;;5088208;28;8882;-81
2024/02/16 03:28:48;;;;;;;;;6.25;6.25;;;;;;;;5082879;28;8839;-79
2024/02/16 03:31:21;;;;;;;;;7.00;5.00;;;;;;;;5087213;28;8867;-79
2024/02/16 03:33:48;;;;;;;;;6.25;6.25;;;;;;;;5088097;28;8842;-79
2024/02/16 03:36:16;;;;;;;;;4.25;3.50;;;;;;;;5087653;28;8858;-80
2024/02/16 03:38:44;;;;;;;;;2.75;1.50;;;;;;;;5088098;28;8848;-80
2024/02/16 03:41:16;;;;;;;;;6.00;6.00;;;;;;;;5087319;28;8997;-80
2024/02/16 03:43:43;;;;;;;;;6.75;5.00;;;;;;;;5087665;28;8846;-80
2024/02/16 03:46:11;;;;;;;;;7.00;7.00;;;;;;;;5087740;28;9664;-80
2024/02/16 03:48:40;;;;;;;;;4.25;4.25;;;;;;;;5088631;28;8827;-80
2024/02/16 03:51:07;;;;;;;;;3.75;3.75;;;;;;;;5089218;28;8863;-82
2024/02/16 03:53:35;;;;;;;;;7.00;7.00;;;;;;;;5090260;28;8992;-79
2024/02/16 03:56:02;;;;;;;;;5.75;5.75;;;;;;;;5089407;28;8869;-79
2024/02/16 03:58:29;;;;;;;;;5.75;5.75;;;;;;;;5088143;28;8931;-80
2024/02/16 04:00:56;;;;;;;;;4.75;4.75;;;;;;;;5086718;28;8810;-79
2024/02/16 04:03:24;;;;;;;;;6.00;6.00;;;;;;;;5088158;28;8850;-80
2024/02/16 04:05:53;;;;;;;;;6.00;6.00;;;;;;;;5087946;28;8865;-79
2024/02/16 04:08:21;;;;;;;;;7.75;5.50;;;;;;;;5084027;28;8860;-79
2024/02/16 04:10:48;;;;;;;;;5.25;5.25;;;;;;;;5076935;28;8837;-78
2024/02/16 04:13:15;;;;;;;;;6.75;5.50;;;;;;;;5087773;28;8876;-79
2024/02/16 04:15:42;;;;;;;;;5.00;4.50;;;;;;;;5091010;28;8894;-79
2024/02/16 04:18:10;;;;;;;;;6.00;6.00;;;;;;;;5079005;28;8894;-81
2024/02/16 04:20:37;;;;;;;;;7.00;5.00;;;;;;;;5089303;28;8827;-81
2024/02/16 04:23:06;;;;;;;;;7.00;5.25;;;;;;;;5087098;28;8838;-79
2024/02/16 04:25:33;;;;;;;;;10.50;6.00;;;;;;;;5087447;28;8872;-79
2024/02/16 04:28:00;;;;;;;;;5.00;5.00;;;;;;;;5087987;28;8861;-80
2024/02/16 04:30:27;;;;;;;;;5.50;5.50;;;;;;;;5090343;28;8734;-79
2024/02/16 04:32:54;;;;;;;;;6.25;5.00;;;;;;;;5091452;28;8839;-79
2024/02/16 04:35:21;;;;;;;;;8.50;4.75;;;;;;;;5091197;28;9778;-80
2024/02/16 04:37:49;;;;;;;;;6.50;6.50;;;;;;;;5090795;28;8847;-81
2024/02/16 04:40:18;;;;;;;;;5.50;5.50;;;;;;;;5090923;28;8854;-79
2024/02/16 04:42:45;;;;;;;;;5.75;5.75;;;;;;;;5091201;28;8834;-80
2024/02/16 04:45:13;;;;;;;;;5.25;5.25;;;;;;;;5091055;28;8858;-80
2024/02/16 04:47:40;;;;;;;;;4.50;4.50;;;;;;;;5089497;28;8839;-79
2024/02/16 04:50:10;;;;;;;;;5.75;5.75;;;;;;;;5090492;28;8842;-81
2024/02/16 04:52:40;;;;;;;;;5.25;5.25;;;;;;;;5090646;28;8846;-80
2024/02/16 04:55:07;;;;;;;;;5.50;4.25;;;;;;;;5090055;28;8857;-80
2024/02/16 04:57:36;;;;;;;;;5.50;5.00;;;;;;;;5092473;28;8869;-80
2024/02/16 05:00:04;;;;;;;;;4.75;4.75;;;;;;;;5093750;28;9027;-80
2024/02/16 05:02:31;;;;;;;;;6.25;6.00;;;;;;;;5091721;28;8957;-82
2024/02/16 05:04:58;;;;;;;;;5.25;5.25;;;;;;;;5093756;28;8843;-81
2024/02/16 05:07:26;;;;;;;;;6.25;5.00;;;;;;;;5100063;28;8911;-78
2024/02/16 05:09:57;;;;;;;;;5.50;5.50;;;;;;;;5092790;28;8870;-79
2024/02/16 05:12:25;;;;;;;;;7.25;7.25;;;;;;;;5090155;28;8850;-81
2024/02/16 05:14:53;;;;;;;;;8.25;6.75;;;;;;;;5089919;28;8968;-81
2024/02/16 05:17:22;;;;;;;;;5.00;5.00;;;;;;;;5091472;28;8870;-80
2024/02/16 05:19:49;;;;;;;;;6.00;6.00;;;;;;;;5095408;28;8862;-81
2024/02/16 05:22:18;;;;;;;;;3.25;3.25;;;;;;;;5085552;28;8877;-80
2024/02/16 05:24:46;;;;;;;;;6.00;6.00;;;;;;;;5089247;28;8913;-80
2024/02/16 05:27:13;;;;;;;;;5.50;5.50;;;;;;;;5089165;28;8900;-80
2024/02/16 05:29:40;;;;;;;;;7.00;7.00;;;;;;;;5086649;28;8869;-80
2024/02/16 05:32:12;;;;;;;;;7.00;7.00;;;;;;;;5077117;28;8922;-81
2024/02/16 05:34:40;;;;;;;;;7.75;7.75;;;;;;;;5088862;28;8857;-78
2024/02/16 05:37:08;;;;;;;;;8.00;8.00;;;;;;;;5089655;28;8922;-80
2024/02/16 05:39:53;;;;;;;;;8.00;7.75;;;;;;;;5089456;28;8883;-80
2024/02/16 05:42:22;;;;;;;;;6.25;6.25;;;;;;;;5091114;28;9630;-79
2024/02/16 05:44:49;;;;;;;;;8.00;6.25;;;;;;;;5091025;28;8854;-79
2024/02/16 05:47:17;;;;;;;;;7.00;5.50;;;;;;;;5090008;28;8853;-80
2024/02/16 05:49:47;;;;;;;;;5.75;5.75;;;;;;;;5087797;28;8887;-80
2024/02/16 05:52:20;;;;;;;;;5.75;5.75;;;;;;;;5088966;28;8888;-78
2024/02/16 05:54:49;;;;;;;;;6.25;6.25;;;;;;;;5076632;28;9482;-80
2024/02/16 05:57:18;;;;;;;;;5.00;5.00;;;;;;;;5088788;28;8869;-79
2024/02/16 05:59:46;;;;;;;;;6.00;6.00;;;;;;;;5089389;28;8842;-79
2024/02/16 06:02:14;;;;;;;;;6.75;6.75;;;;;;;;5088264;28;8826;-80
2024/02/16 06:04:42;;;;;;;;;7.75;7.75;;;;;;;;5089779;28;8846;-81
2024/02/16 06:07:10;;;;;;;;;6.75;6.75;;;;;;;;5089249;28;8869;-84
2024/02/16 06:09:38;;;;;;;;;11.00;6.75;;;;;;;;5080121;28;9676;-81
2024/02/16 06:12:07;;;;;;;;;5.00;5.00;;;;;;;;5088899;28;8850;-81
2024/02/16 06:14:34;;;;;;;;;6.00;6.00;;;;;;;;5088425;28;8828;-76
2024/02/16 06:17:01;;;;;;;;;5.75;5.75;;;;;;;;5087833;28;8861;-77
2024/02/16 06:19:34;;;;;;;;;6.25;6.25;;;;;;;;5088015;28;8911;-76
2024/02/16 06:22:03;;;;;;;;;6.00;5.50;;;;;;;;5088121;28;8836;-76
2024/02/16 06:24:39;;;;;;;;;7.25;7.25;;;;;;;;5088854;28;8848;-76
2024/02/16 06:27:08;;;;;;;;;10.00;8.25;;;;;;;;5086717;28;8862;-75
2024/02/16 06:29:35;;;;;;;;;5.75;5.75;;;;;;;;5087334;28;8866;-76
2024/02/16 06:32:03;;;;;;;;;6.75;6.50;;;;;;;;5094587;28;8919;-77
2024/02/16 06:34:32;;;;;;;;;10.75;8.00;;;;;;;;5093591;28;8854;-77
2024/02/16 06:37:01;;;;;;;;;7.00;7.00;;;;;;;;5076492;28;8873;-78
2024/02/16 06:39:30;;;;;;;;;8.50;7.00;;;;;;;;5088923;28;8847;-77
2024/02/16 06:41:58;;;;;;;;;7.00;7.00;;;;;;;;5088780;28;8854;-78
2024/02/16 06:44:28;;;;;;;;;7.25;7.25;;;;;;;;5089797;28;8892;-77
2024/02/16 06:46:59;;;;;;;;;9.00;9.00;;;;;;;;5085776;28;8866;-79
2024/02/16 06:49:28;;;;;;;;;8.00;7.50;;;;;;;;5091337;28;8850;-78
2024/02/16 06:51:59;;;;;;;;;8.00;8.00;;;;;;;;5090244;28;8858;-78
2024/02/16 06:54:30;;;;;;;;;8.00;8.00;;;;;;;;5091059;28;8842;-78
2024/02/16 06:57:06;;;;;;;;;8.00;6.75;;;;;;;;5084095;28;8860;-76
2024/02/16 06:59:34;;;;;;;;;8.50;8.50;;;;;;;;5092142;28;8832;-78
2024/02/16 07:02:01;;;;;;;;;10.25;9.00;;;;;;;;5092411;28;9597;-76
2024/02/16 07:04:28;;;;;;;;;8.25;6.75;;;;;;;;5087503;28;8849;-77
2024/02/16 07:06:59;;;;;;;;;6.50;6.50;;;;;;;;5087616;28;8907;-78
2024/02/16 07:09:28;;;;;;;;;8.00;8.00;;;;;;;;5085776;28;8992;-79
2024/02/16 07:11:58;;;;;;;;;5.50;3.75;;;;;;;;5085452;28;8865;-76
2024/02/16 07:14:27;;;;;;;;;9.25;7.25;;;;;;;;5087801;28;9813;-77
2024/02/16 07:16:55;;;;;;;;;11.50;10.25;;;;;;;;5087781;28;8850;-79
2024/02/16 07:19:22;;;;;;;;;6.50;6.50;;;;;;;;5052711;28;9760;-78
2024/02/16 07:21:53;;;;;;;;;8.00;7.00;;;;;;;;5084515;28;9597;-79
2024/02/16 07:24:21;;;;;;;;;8.25;8.25;;;;;;;;5087948;28;8857;-79
2024/02/16 07:26:48;;;;;;;;;6.00;6.00;;;;;;;;5088575;28;8872;-81
2024/02/16 07:29:17;;;;;;;;;8.75;7.25;;;;;;;;5088699;28;8870;-76
2024/02/16 07:31:44;;;;;;;;;10.00;8.25;;;;;;;;5088343;28;8815;-78
2024/02/16 07:34:13;;;;;;;;;7.75;7.75;;;;;;;;5087994;28;9130;-79
2024/02/16 07:36:40;;;;;;;;;9.00;8.25;;;;;;;;5087473;28;8919;-78
2024/02/16 07:39:11;;;;;;;;;6.25;6.25;;;;;;;;5087934;28;8952;-79
2024/02/16 07:41:39;;;;;;;;;10.00;9.00;;;;;;;;5086954;28;8854;-78
2024/02/16 07:44:06;;;;;;;;;9.50;7.25;;;;;;;;5078527;28;8983;-78
2024/02/16 07:46:40;;;;;;;;;9.25;8.25;;;;;;;;5086895;28;8846;-78
2024/02/16 07:49:07;;;;;;;;;7.25;7.25;;;;;;;;5087259;28;9751;-80
2024/02/16 07:51:41;;;;;;;;;9.75;8.50;;;;;;;;5087369;28;8931;-80
2024/02/16 07:54:10;;;;;;;;;6.00;6.00;;;;;;;;5037356;28;8866;-80
2024/02/16 07:56:37;;;;;;;;;8.25;8.25;;;;;;;;5084357;28;8857;-77
2024/02/16 07:59:04;;;;;;;;;6.50;5.75;;;;;;;;5086964;28;8850;-82
2024/02/16 08:01:31;;;;;;;;;7.75;6.50;;;;;;;;5086064;28;8818;-77
2024/02/16 08:04:00;;;;;;;;;7.50;7.50;;;;;;;;5089346;28;8839;-78
2024/02/16 08:06:28;;;;;;;;;7.00;7.00;;;;;;;;5090468;28;8873;-79
2024/02/16 08:08:55;;;;;;;;;7.00;7.00;;;;;;;;5087056;28;8963;-76
2024/02/16 08:11:23;;;;;;;;;7.00;7.00;;;;;;;;5087506;28;8850;-76
2024/02/16 08:13:50;;;;;;;;;10.00;7.25;;;;;;;;5089283;28;8839;-77
2024/02/16 08:16:17;;;;;;;;;7.00;7.00;;;;;;;;5090347;28;9637;-77
2024/02/16 08:18:46;;;;;;;;;7.00;7.00;;;;;;;;5090433;28;8854;-78
2024/02/16 08:21:15;;;;;;;;;8.25;5.75;;;;;;;;5090819;28;8858;-77
2024/02/16 08:23:42;;;;;;;;;6.00;5.25;;;;;;;;5090834;28;8842;-77
2024/02/16 08:26:09;;;;;;;;;6.00;6.00;;;;;;;;5090463;28;8884;-78
2024/02/16 08:28:38;;;;;;;;;6.00;6.00;;;;;;;;5083978;28;8888;-78
2024/02/16 08:31:06;;;;;;;;;6.33;6.33;;;;;;;;5091712;28;8871;-78
2024/02/16 08:33:36;;;;;;;;;7.00;7.00;;;;;;;;5093120;28;8938;-79
2024/02/16 08:36:05;;;;;;;;;10.25;7.00;;;;;;;;5094084;28;8872;-87
2024/02/16 08:38:35;;;;;;;;;6.25;6.25;;;;;;;;5092061;28;8869;-78
2024/02/16 08:41:05;;;;;;;;;7.50;6.25;;;;;;;;5092064;28;8876;-83
2024/02/16 08:43:34;;;;;;;;;6.00;6.00;;;;;;;;5086684;28;8852;-77
2024/02/16 08:46:01;;;;;;;;;5.00;5.00;;;;;;;;5086970;28;8862;-78
2024/02/16 08:48:28;;;;;;;;;6.75;5.00;;;;;;;;5089198;28;9454;-77
2024/02/16 08:50:56;;;;;;;;;5.50;5.00;;;;;;;;5090248;28;9690;-78
2024/02/16 08:53:24;;;;;;;;;4.75;4.75;;;;;;;;5090418;28;8846;-79
2024/02/16 08:55:52;;;;;;;;;6.00;6.00;;;;;;;;5089438;28;8834;-78
2024/02/16 08:58:19;;;;;;;;;4.25;4.25;;;;;;;;5088214;28;8818;-77
2024/02/16 09:00:48;;;;;;;;;7.00;5.00;;;;;;;;5088914;28;8815;-76
2024/02/16 09:03:16;;;;;;;;;9.25;7.00;;;;;;;;5089691;28;8838;-78
2024/02/16 09:05:44;;;;;;;;;6.00;5.50;;;;;;;;5089576;28;8877;-79
2024/02/16 09:08:11;;;;;;;;;7.25;6.00;;;;;;;;5080904;28;9738;-83
2024/02/16 09:10:38;;;;;;;;;5.50;5.50;;;;;;;;5088118;28;8845;-85
2024/02/16 09:13:09;;;;;;;;;7.00;5.25;;;;;;;;5090966;28;8838;-82
2024/02/16 09:15:36;;;;;;;;;4.25;4.25;;;;;;;;5072943;28;8842;-77
2024/02/16 09:18:04;;;;;;;;;9.25;6.00;;;;;;;;5100001;28;8969;-87
2024/02/16 09:20:31;;;;;;;;;6.25;6.00;;;;;;;;5093319;28;8846;-82
2024/02/16 09:23:00;;;;;;;;;4.50;4.50;;;;;;;;5094773;28;8842;-82
2024/02/16 09:25:30;;;;;;;;;5.50;4.00;;;;;;;;5093590;28;8892;-77
2024/02/16 09:27:58;;;;;;;;;6.50;6.25;;;;;;;;5093198;28;8882;-79
2024/02/16 09:30:29;;;;;;;;;6.00;6.00;;;;;;;;5093317;28;9426;-79
2024/02/16 09:32:56;;;;;;;;;6.00;5.25;;;;;;;;5094386;28;8849;-77
2024/02/16 09:35:24;;;;;;;;;7.50;6.25;;;;;;;;5101417;28;8832;-80
2024/02/16 09:37:51;;;;;;;;;6.75;6.75;;;;;;;;5096336;28;8880;-78
2024/02/16 09:40:20;;;;;;;;;6.00;6.00;;;;;;;;5088494;28;8843;-77
2024/02/16 09:42:50;;;;;;;;;7.25;7.25;;;;;;;;5089382;28;8923;-80
2024/02/16 09:45:19;;;;;;;;;6.50;6.50;;;;;;;;5089201;28;8881;-79
2024/02/16 09:47:47;;;;;;;;;5.50;5.25;;;;;;;;5088692;28;8831;-78
2024/02/16 09:50:15;;;;;;;;;7.50;7.50;;;;;;;;5089132;28;8939;-77
2024/02/16 09:52:48;;;;;;;;;7.00;7.00;;;;;;;;5088650;28;8849;-80
2024/02/16 09:55:16;;;;;;;;;8.75;8.75;;;;;;;;5089018;28;8849;-79
2024/02/16 09:57:44;;;;;;;;;8.00;8.00;;;;;;;;5088478;28;8969;-79
2024/02/16 10:00:13;;;;;;;;;12.00;9.00;;;;;;;;5088135;28;8838;-80
2024/02/16 10:02:43;;;;;;;;;9.50;9.50;;;;;;;;5086541;28;9717;-82
2024/02/16 10:05:17;;;;;;;;;9.00;9.00;;;;;;;;5088821;28;8838;-80
2024/02/16 10:07:47;;;;;;;;;12.75;10.25;;;;;;;;5085185;28;8838;-79
2024/02/16 10:10:24;;;;;;;;;8.25;8.25;;;;;;;;5089270;28;8861;-81
2024/02/16 10:12:51;;;;;;;;;14.00;12.00;;;;;;;;5088879;28;8992;-81
2024/02/16 10:15:22;;;;;;;;;12.00;12.00;;;;;;;;5089100;28;8842;-82
2024/02/16 10:17:59;;;;;;;;;14.00;12.75;;;;;;;;5085799;28;8985;-82
2024/02/16 10:20:28;;;;;;;;;11.25;9.25;;;;;;;;5091511;28;8838;-80
2024/02/16 10:23:08;;;;;;;;;12.00;12.00;;;;;;;;5085994;28;8882;-82
2024/02/16 10:25:36;;;;;;;;;14.25;12.00;;;;;;;;5086484;28;8830;-80
2024/02/16 10:28:07;;;;;;;;;11.00;10.50;;;;;;;;5090467;28;8842;-80
2024/02/16 10:30:38;;;;;;;;;11.00;9.75;;;;;;;;5090945;28;8801;-81
2024/02/16 10:33:07;;;;;;;;;8.00;7.50;;;;;;;;5090887;28;8836;-80
2024/02/16 10:35:36;;;;;;;;;11.25;9.00;;;;;;;;5088232;28;8857;-84
2024/02/16 10:38:04;;;;;;;;;9.75;9.75;;;;;;;;5087772;28;9566;-80
2024/02/16 10:40:33;;;;;;;;;6.00;6.00;;;;;;;;5088257;28;8842;-79
2024/02/16 10:43:05;;;;;;;;;7.75;7.00;;;;;;;;5087756;28;8878;-79
2024/02/16 10:45:35;;;;;;;;;9.75;9.75;;;;;;;;5087774;28;8988;-79
2024/02/16 10:48:02;;;;;;;;;10.00;10.00;;;;;;;;5087891;28;8846;-79
2024/02/16 10:50:31;;;;;;;;;9.00;7.50;;;;;;;;5087303;28;9636;-80
2024/02/16 10:53:05;;;;;;;;;8.00;8.00;;;;;;;;5087125;28;8850;-81
2024/02/16 10:55:33;;;;;;;;;7.75;7.75;;;;;;;;5087870;28;8853;-81
2024/02/16 10:58:00;;;;;;;;;5.25;5.00;;;;;;;;5088092;28;8866;-80
2024/02/16 11:00:30;;;;;;;;;7.25;7.00;;;;;;;;5087600;28;8780;-78
2024/02/16 11:02:59;;;;;;;;;4.00;4.00;;;;;;;;5088730;28;8872;-77
2024/02/16 11:05:36;;;;;;;;;7.00;7.00;;;;;;;;5088238;28;8873;-80
2024/02/16 11:08:12;;;;;;;;;7.00;7.00;;;;;;;;5088916;28;8874;-78
2024/02/16 11:10:41;;;;;;;;;8.50;8.50;;;;;;;;5087249;28;8870;-78
2024/02/16 11:13:09;;;;;;;;;9.00;7.50;;;;;;;;5086030;28;8865;-79
2024/02/16 11:15:38;;;;;;;;;8.00;8.00;;;;;;;;5086502;28;9644;-81
2024/02/16 11:18:06;;;;;;;;;5.50;5.50;;;;;;;;5087512;28;8864;-81
2024/02/16 11:20:39;;;;;;;;;7.25;7.25;;;;;;;;5085862;28;8876;-79
2024/02/16 11:23:10;;;;;;;;;8.00;8.00;;;;;;;;5098894;28;8943;-84
2024/02/16 11:25:38;;;;;;;;;8.25;8.25;;;;;;;;5093258;28;8911;-80
2024/02/16 11:28:06;;;;;;;;;8.50;8.50;;;;;;;;5095301;28;8869;-79
2024/02/16 11:30:35;;;;;;;;;10.00;10.00;;;;;;;;5088456;28;8760;-80
2024/02/16 11:33:05;;;;;;;;;9.50;9.50;;;;;;;;5096017;28;8835;-82
2024/02/16 11:35:33;;;;;;;;;10.50;8.50;;;;;;;;5091460;28;8868;-81
2024/02/16 11:38:03;;;;;;;;;9.50;9.50;;;;;;;;5093151;28;8858;-79
2024/02/16 11:40:31;;;;;;;;;10.50;10.50;;;;;;;;5091370;28;8849;-79
2024/02/16 11:43:00;;;;;;;;;9.50;9.00;;;;;;;;5091442;28;8831;-80
2024/02/16 11:45:34;;;;;;;;;9.50;8.25;;;;;;;;5092364;28;8849;-83
2024/02/16 11:48:07;;;;;;;;;10.25;10.25;;;;;;;;5089042;28;8882;-80
2024/02/16 11:50:34;;;;;;;;;6.75;6.75;;;;;;;;5090178;28;8854;-80
2024/02/16 11:53:01;;;;;;;;;9.00;9.00;;;;;;;;5083183;28;8858;-80
2024/02/16 11:55:32;;;;;;;;;9.25;7.50;;;;;;;;5092174;28;8834;-82
2024/02/16 11:58:04;;;;;;;;;8.25;8.25;;;;;;;;5091825;28;8853;-81
2024/02/16 12:00:31;;;;;;;;;8.00;8.00;;;;;;;;5088559;28;8787;-90
2024/02/16 12:03:02;;;;;;;;;13.50;10.00;;;;;;;;5094913;28;8838;-83
2024/02/16 12:05:29;;;;;;;;;6.25;6.25;;;;;;;;5092268;28;8847;-83
2024/02/16 12:08:02;;;;;;;;;5.50;5.50;;;;;;;;5094524;28;8928;-81
2024/02/16 12:10:30;;;;;;;;;6.50;6.00;;;;;;;;5094403;28;8846;-84
2024/02/16 12:13:00;;;;;;;;;6.00;4.50;;;;;;;;5091130;28;8961;-78
2024/02/16 12:15:31;;;;;;;;;3.00;2.00;;;;;;;;5095237;28;8843;-77
2024/02/16 12:18:02;;;;;;;;;2.25;2.00;;;;;;;;5094993;28;8850;-84
2024/02/16 12:20:32;;;;;;;;;2.00;2.00;;;;;;;;5094490;28;8977;-83
2024/02/16 12:23:02;;;;;;;;;5.00;3.50;;;;;;;;5082915;28;8842;-81
2024/02/16 12:25:29;;;;;;;;;2.25;2.25;;;;;;;;5091005;28;8903;-84
2024/02/16 12:27:56;;;;;;;;;3.50;3.00;;;;;;;;5091419;28;9589;-79
2024/02/16 12:30:23;;;;;;;;;1.50;1.00;;;;;;;;5090423;28;9545;-84
2024/02/16 12:32:52;;;;;;;;;1.50;1.50;;;;;;;;5090722;28;8851;-82
2024/02/16 12:35:20;;;;;;;;;3.00;3.00;;;;;;;;5090401;28;8858;-80
2024/02/16 12:37:47;;;;;;;;;3.00;3.00;;;;;;;;5090654;28;9684;-81
2024/02/16 12:40:14;;;;;;;;;2.00;2.00;;;;;;;;5090650;28;8846;-82
2024/02/16 12:42:42;;;;;;;;;2.00;2.00;;;;;;;;5090761;28;8876;-84
2024/02/16 12:45:10;;;;;;;;;3.00;3.00;;;;;;;;5101762;28;8850;-83
2024/02/16 12:47:40;;;;;;;;;1.50;1.25;;;;;;;;5101790;28;8852;-83
2024/02/16 12:50:09;;;;;;;;;4.50;2.75;;;;;;;;5090526;28;8866;-82
2024/02/16 12:52:38;;;;;;;;;2.00;2.00;;;;;;;;5091634;28;8835;-79
2024/02/16 12:55:06;;;;;;;;;4.00;4.00;;;;;;;;5092932;28;8969;-78
2024/02/16 12:57:33;;;;;;;;;2.00;2.00;;;;;;;;5085241;28;8972;-78
2024/02/16 13:00:02;;;;;;;;;3.00;2.00;;;;;;;;5081842;28;8976;-77
2024/02/16 13:02:31;;;;;;;;;2.00;2.00;;;;;;;;5089081;28;8882;-78
2024/02/16 13:04:58;;;;;;;;;2.75;1.50;;;;;;;;5090077;28;8968;-78
2024/02/16 13:07:30;;;;;;;;;5.00;2.00;;;;;;;;5089118;28;8858;-78
2024/02/16 13:09:57;;;;;;;;;2.00;2.00;;;;;;;;5090153;28;9628;-78
2024/02/16 13:12:24;;;;;;;;;2.00;2.00;;;;;;;;5089532;28;8926;-78
2024/02/16 13:14:51;;;;;;;;;2.00;2.00;;;;;;;;5090129;28;8853;-78
2024/02/16 13:17:19;;;;;;;;;2.00;2.00;;;;;;;;5089696;28;8846;-78
2024/02/16 13:19:46;;;;;;;;;2.50;2.50;;;;;;;;5089496;28;8831;-79
2024/02/16 13:22:13;;;;;;;;;1.00;1.00;;;;;;;;5089112;28;8834;-78
2024/02/16 13:24:42;;;;;;;;;1.00;1.00;;;;;;;;5079298;28;8866;-79
2024/02/16 13:27:09;;;;;;;;;1.25;1.00;;;;;;;;5088925;28;8854;-78
2024/02/16 13:29:36;;;;;;;;;2.00;2.00;;;;;;;;5088852;28;8838;-79
2024/02/16 13:32:04;;;;;;;;;1.00;1.00;;;;;;;;5089422;28;8803;-80
2024/02/16 13:34:31;;;;;;;;;2.00;2.00;;;;;;;;5089156;28;8972;-78
2024/02/16 13:37:01;;;;;;;;;4.75;3.00;;;;;;;;5089688;28;8854;-77
2024/02/16 13:39:28;;;;;;;;;2.75;2.00;;;;;;;;5088916;28;8858;-79
2024/02/16 13:41:59;;;;;;;;;2.75;2.75;;;;;;;;5089324;28;9624;-79
2024/02/16 13:44:27;;;;;;;;;3.00;3.00;;;;;;;;5089324;28;8865;-79
2024/02/16 13:46:54;;;;;;;;;3.75;3.00;;;;;;;;5089779;28;8877;-78
2024/02/16 13:49:22;;;;;;;;;3.00;3.00;;;;;;;;5088652;28;8876;-78
2024/02/16 13:51:49;;;;;;;;;3.00;3.00;;;;;;;;5089495;28;8854;-80
2024/02/16 13:54:17;;;;;;;;;2.00;2.00;;;;;;;;5090050;28;8830;-79
2024/02/16 13:56:45;;;;;;;;;2.25;2.25;;;;;;;;5082852;28;8871;-79
2024/02/16 13:59:13;;;;;;;;;3.75;3.75;;;;;;;;5091721;28;8838;-79
2024/02/16 14:01:40;;;;;;;;;3.00;3.00;;;;;;;;5091339;28;8804;-79
2024/02/16 14:04:08;;;;;;;;;3.25;3.25;;;;;;;;5091829;28;8859;-78
2024/02/16 14:06:35;;;;;;;;;2.25;2.25;;;;;;;;5091713;28;8881;-78
2024/02/16 14:09:08;;;;;;;;;4.50;4.50;;;;;;;;5096247;28;8860;-79
2024/02/16 14:11:35;;;;;;;;;3.00;2.00;;;;;;;;5097850;28;8865;-79
2024/02/16 14:14:03;;;;;;;;;4.00;2.00;;;;;;;;5088500;28;8973;-80
2024/02/16 14:16:31;;;;;;;;;2.00;2.00;;;;;;;;5088425;28;8875;-79
2024/02/16 14:19:01;;;;;;;;;2.00;2.00;;;;;;;;5087914;28;8857;-79
2024/02/16 14:21:32;;;;;;;;;3.00;2.50;;;;;;;;5088296;28;8850;-78
2024/02/16 14:23:59;;;;;;;;;1.25;1.25;;;;;;;;5089367;28;8927;-78
2024/02/16 14:26:27;;;;;;;;;2.00;2.00;;;;;;;;5088532;28;8846;-79
2024/02/16 14:28:55;;;;;;;;;2.25;1.75;;;;;;;;5084025;28;8850;-78
2024/02/16 14:31:22;;;;;;;;;2.00;2.00;;;;;;;;5087455;28;8790;-78
2024/02/16 14:33:51;;;;;;;;;2.50;1.75;;;;;;;;5088195;28;8834;-78
2024/02/16 14:36:18;;;;;;;;;3.00;1.00;;;;;;;;5088496;28;8842;-77
2024/02/16 14:38:45;;;;;;;;;1.75;1.75;;;;;;;;5088599;28;9768;-78
2024/02/16 14:41:12;;;;;;;;;1.25;1.25;;;;;;;;5088762;28;9619;-78
2024/02/16 14:43:39;;;;;;;;;0.25;0.25;;;;;;;;5090787;28;9641;-80
2024/02/16 14:46:07;;;;;;;;;1.50;1.50;;;;;;;;5089666;28;8873;-78
2024/02/16 14:48:35;;;;;;;;;1.00;1.00;;;;;;;;5089023;28;9761;-79
2024/02/16 14:51:05;;;;;;;;;1.75;1.75;;;;;;;;5087849;28;8846;-78
2024/02/16 14:53:33;;;;;;;;;2.00;2.00;;;;;;;;5088073;28;9661;-78
2024/02/16 14:56:00;;;;;;;;;1.00;1.00;;;;;;;;5087379;28;8874;-78
2024/02/16 14:58:30;;;;;;;;;1.25;0.00;;;;;;;;5087770;28;8876;-79
2024/02/16 15:01:04;;;;;;;;;3.00;1.00;;;;;;;;5087006;28;8808;-77
2024/02/16 15:03:31;;;;;;;;;3.00;1.00;;;;;;;;5087832;28;9698;-79